createdAt,value
2022-10-11T00:00:05.431Z,2.80
2022-10-11T00:01:05.467Z,2.70
2022-10-11T00:02:05.450Z,2.90
2022-10-11T00:03:05.438Z,3.00
2022-10-11T00:04:05.416Z,3.10
2022-10-11T00:05:05.541Z,2.90
2022-10-11T00:06:05.778Z,3.40
2022-10-11T00:07:05.529Z,3.10
2022-10-11T00:08:05.434Z,3.20
2022-10-11T00:09:05.424Z,2.90
2022-10-11T00:10:05.368Z,2.60
2022-10-11T00:11:05.364Z,3.00
2022-10-11T00:12:05.399Z,2.80
2022-10-11T00:13:05.376Z,3.20
2022-10-11T00:14:05.359Z,2.70
2022-10-11T00:15:05.382Z,2.80
2022-10-11T00:16:05.700Z,3.00
2022-10-11T00:17:05.320Z,2.80
2022-10-11T00:18:05.612Z,2.50
2022-10-11T00:19:06.315Z,2.50
2022-10-11T00:20:05.312Z,3.10
2022-10-11T00:21:05.300Z,3.00
2022-10-11T00:22:05.288Z,3.10
2022-10-11T00:23:05.276Z,3.00
2022-10-11T00:24:05.335Z,3.20
2022-10-11T00:25:05.275Z,2.90
2022-10-11T00:26:05.535Z,2.80
2022-10-11T00:27:05.267Z,3.20
2022-10-11T00:28:05.299Z,3.10
2022-10-11T00:29:05.252Z,3.10
2022-10-11T00:30:05.260Z,2.80
2022-10-11T00:31:05.577Z,3.40
2022-10-11T00:32:05.215Z,3.30
2022-10-11T00:33:05.272Z,3.50
2022-10-11T00:34:05.227Z,3.10
2022-10-11T00:35:05.212Z,2.80
2022-10-11T00:36:05.490Z,3.00
2022-10-11T00:37:05.275Z,3.40
2022-10-11T00:38:05.176Z,3.00
2022-10-11T00:39:05.188Z,2.90
2022-10-11T00:40:05.195Z,3.00
2022-10-11T00:41:05.180Z,2.80
2022-10-11T00:42:05.159Z,3.10
2022-10-11T00:43:05.172Z,3.30
2022-10-11T00:44:05.143Z,2.70
2022-10-11T00:45:05.140Z,3.40
2022-10-11T00:46:05.453Z,3.20
2022-10-11T00:47:05.127Z,3.30
2022-10-11T00:48:05.116Z,3.60
2022-10-11T00:49:05.125Z,3.00
2022-10-11T00:50:05.106Z,3.20
2022-10-11T00:51:05.470Z,2.90
2022-10-11T00:52:05.104Z,3.40
2022-10-11T00:53:05.104Z,3.00
2022-10-11T00:54:05.082Z,3.00
2022-10-11T00:55:05.080Z,3.30
2022-10-11T00:56:05.311Z,3.30
2022-10-11T00:57:05.676Z,3.10
2022-10-11T00:58:05.092Z,3.20
2022-10-11T00:59:05.085Z,3.50
2022-10-11T01:00:05.057Z,3.30
2022-10-11T01:01:05.146Z,3.50
2022-10-11T01:02:05.048Z,3.60
2022-10-11T01:03:05.050Z,3.20
2022-10-11T01:04:05.028Z,3.10
2022-10-11T01:05:27.760Z,3.70
2022-10-11T01:06:07.529Z,3.10
2022-10-11T01:07:05.068Z,3.10
2022-10-11T01:08:05.001Z,3.10
2022-10-11T01:09:05.025Z,3.10
2022-10-11T01:10:05.101Z,2.90
2022-10-11T01:11:05.000Z,3.30
2022-10-11T01:12:04.984Z,3.40
2022-10-11T01:13:04.988Z,3.60
2022-10-11T01:14:04.987Z,3.10
2022-10-11T01:15:04.956Z,3.30
2022-10-11T01:16:05.305Z,3.40
2022-10-11T01:17:04.954Z,3.20
2022-10-11T01:18:04.955Z,3.20
2022-10-11T01:19:04.935Z,3.20
2022-10-11T01:20:04.961Z,3.50
2022-10-11T01:21:04.928Z,3.10
2022-10-11T01:22:04.928Z,3.20
2022-10-11T01:23:04.947Z,3.50
2022-10-11T01:24:08.569Z,3.90
2022-10-11T01:25:05.912Z,3.50
2022-10-11T01:26:05.200Z,3.90
2022-10-11T01:27:04.931Z,4.00
2022-10-11T01:28:04.886Z,4.20
2022-10-11T01:29:04.877Z,3.90
2022-10-11T01:30:04.925Z,4.10
2022-10-11T01:31:04.877Z,3.00
2022-10-11T01:32:04.901Z,3.30
2022-10-11T01:33:04.900Z,3.30
2022-10-11T01:34:04.852Z,3.20
2022-10-11T01:35:04.883Z,3.60
2022-10-11T01:36:05.160Z,4.10
2022-10-11T01:37:04.842Z,3.20
2022-10-11T01:38:05.814Z,3.50
2022-10-11T01:39:04.822Z,3.70
2022-10-11T01:40:04.940Z,4.00
2022-10-11T01:41:04.853Z,3.70
2022-10-11T01:42:04.821Z,4.20
2022-10-11T01:43:04.799Z,3.80
2022-10-11T01:44:04.818Z,3.20
2022-10-11T01:45:04.861Z,3.30
2022-10-11T01:46:05.104Z,3.20
2022-10-11T01:47:04.772Z,3.40
2022-10-11T01:48:04.813Z,3.30
2022-10-11T01:49:04.784Z,3.80
2022-10-11T01:50:04.793Z,3.30
2022-10-11T01:51:04.764Z,3.80
2022-10-11T01:52:04.814Z,3.80
2022-10-11T01:53:04.793Z,3.90
2022-10-11T01:54:04.812Z,3.60
2022-10-11T01:55:09.651Z,3.70
2022-10-11T01:56:07.372Z,3.80
2022-10-11T01:57:04.725Z,3.90
2022-10-11T01:58:04.748Z,4.50
2022-10-11T01:59:04.704Z,4.40
2022-10-11T02:00:04.696Z,4.60
2022-10-11T02:01:04.749Z,3.70
2022-10-11T02:02:04.681Z,4.60
2022-10-11T02:03:04.721Z,4.90
2022-10-11T02:04:04.674Z,4.50
2022-10-11T02:05:04.677Z,4.80
2022-10-11T02:06:04.949Z,4.20
2022-10-11T02:07:04.666Z,4.00
2022-10-11T02:08:04.650Z,3.80
2022-10-11T02:09:08.084Z,4.00
2022-10-11T02:10:05.641Z,4.20
2022-10-11T02:11:04.637Z,4.30
2022-10-11T02:12:04.621Z,3.80
2022-10-11T02:13:04.625Z,4.20
2022-10-11T02:14:04.618Z,3.70
2022-10-11T02:15:04.649Z,3.70
2022-10-11T02:16:04.811Z,4.30
2022-10-11T02:17:05.153Z,3.90
2022-10-11T02:18:04.608Z,3.90
2022-10-11T02:19:04.630Z,4.60
2022-10-11T02:20:04.590Z,4.20
2022-10-11T02:21:04.593Z,4.20
2022-10-11T02:22:04.573Z,3.60
2022-10-11T02:23:04.553Z,3.80
2022-10-11T02:24:04.575Z,3.90
2022-10-11T02:25:04.561Z,3.80
2022-10-11T02:26:04.974Z,4.20
2022-10-11T02:27:04.589Z,4.20
2022-10-11T02:28:04.526Z,4.20
2022-10-11T02:29:04.529Z,3.80
2022-10-11T02:30:04.526Z,3.70
2022-10-11T02:31:04.512Z,4.00
2022-10-11T02:32:04.502Z,4.00
2022-10-11T02:33:04.493Z,4.00
2022-10-11T02:34:04.497Z,3.50
2022-10-11T02:35:04.501Z,4.00
2022-10-11T02:36:04.752Z,3.80
2022-10-11T02:37:04.502Z,4.40
2022-10-11T02:38:04.468Z,4.60
2022-10-11T02:39:04.504Z,5.00
2022-10-11T02:40:04.476Z,4.50
2022-10-11T02:41:04.495Z,4.60
2022-10-11T02:42:04.476Z,5.00
2022-10-11T02:43:04.474Z,5.40
2022-10-11T02:44:04.435Z,4.50
2022-10-11T02:45:04.447Z,5.40
2022-10-11T02:46:04.836Z,5.30
2022-10-11T02:47:04.700Z,4.30
2022-10-11T02:48:04.474Z,4.60
2022-10-11T02:49:04.417Z,4.70
2022-10-11T02:50:04.399Z,5.30
2022-10-11T02:51:04.419Z,4.80
2022-10-11T02:52:04.394Z,5.30
2022-10-11T02:53:04.403Z,4.90
2022-10-11T02:54:04.385Z,5.00
2022-10-11T02:55:04.384Z,5.10
2022-10-11T02:56:04.745Z,4.60
2022-10-11T02:57:04.370Z,4.60
2022-10-11T02:58:04.371Z,4.00
2022-10-11T02:59:04.377Z,4.40
2022-10-11T03:00:04.429Z,4.90
2022-10-11T03:01:04.341Z,4.80
2022-10-11T03:02:04.388Z,4.50
2022-10-11T03:03:04.374Z,4.20
2022-10-11T03:04:05.317Z,4.20
2022-10-11T03:05:04.319Z,4.60
2022-10-11T03:06:04.672Z,5.10
2022-10-11T03:07:04.339Z,4.80
2022-10-11T03:08:04.311Z,4.90
2022-10-11T03:09:04.282Z,4.70
2022-10-11T03:10:05.080Z,4.70
2022-10-11T03:11:04.286Z,5.00
2022-10-11T03:12:04.292Z,4.20
2022-10-11T03:13:04.306Z,4.30
2022-10-11T03:14:04.284Z,4.60
2022-10-11T03:15:04.251Z,4.80
2022-10-11T03:16:04.238Z,5.40
2022-10-11T03:17:31.047Z,5.50
2022-10-11T03:18:06.255Z,5.20
2022-10-11T03:19:04.236Z,4.60
2022-10-11T03:20:04.292Z,4.80
2022-10-11T03:21:04.208Z,4.90
2022-10-11T03:22:04.231Z,4.60
2022-10-11T03:23:04.220Z,5.10
2022-10-11T03:24:04.207Z,4.80
2022-10-11T03:25:04.929Z,5.70
2022-10-11T03:26:05.382Z,5.10
2022-10-11T03:27:04.176Z,5.50
2022-10-11T03:28:04.194Z,5.60
2022-10-11T03:29:04.197Z,5.50
2022-10-11T03:30:04.201Z,5.60
2022-10-11T03:31:04.158Z,5.10
2022-10-11T03:32:04.170Z,4.90
2022-10-11T03:33:04.297Z,4.90
2022-10-11T03:34:04.166Z,6.80
2022-10-11T03:35:04.338Z,79.80
2022-10-11T03:36:04.451Z,34.50
2022-10-11T03:37:04.125Z,7.20
2022-10-11T03:38:04.125Z,6.30
2022-10-11T03:39:04.127Z,6.10
2022-10-11T03:40:04.114Z,5.60
2022-10-11T03:41:04.122Z,5.40
2022-10-11T03:42:04.090Z,5.50
2022-10-11T03:43:04.106Z,5.90
2022-10-11T03:44:04.065Z,5.90
2022-10-11T03:45:04.103Z,5.40
2022-10-11T03:46:04.463Z,5.60
2022-10-11T03:47:04.072Z,5.10
2022-10-11T03:48:04.075Z,5.30
2022-10-11T03:49:04.042Z,5.80
2022-10-11T03:50:04.059Z,5.60
2022-10-11T03:51:04.027Z,6.00
2022-10-11T03:52:04.032Z,5.80
2022-10-11T03:53:04.100Z,5.70
2022-10-11T03:54:04.022Z,5.70
2022-10-11T03:55:04.019Z,5.90
2022-10-11T03:56:08.271Z,5.50
2022-10-11T03:57:04.999Z,6.00
2022-10-11T03:58:03.989Z,5.80
2022-10-11T03:59:03.990Z,5.90
2022-10-11T04:00:03.983Z,6.20
2022-10-11T04:01:04.009Z,5.30
2022-10-11T04:02:04.029Z,5.00
2022-10-11T04:03:03.981Z,5.50
2022-10-11T04:04:03.944Z,5.60
2022-10-11T04:05:03.961Z,5.60
2022-10-11T04:06:04.391Z,5.60
2022-10-11T04:07:03.935Z,5.60
2022-10-11T04:08:06.331Z,5.40
2022-10-11T04:09:04.926Z,5.00
2022-10-11T04:10:03.929Z,5.50
2022-10-11T04:11:03.913Z,6.00
2022-10-11T04:12:03.935Z,6.50
2022-10-11T04:13:03.947Z,5.60
2022-10-11T04:14:03.927Z,5.70
2022-10-11T04:15:03.886Z,5.20
2022-10-11T04:16:04.874Z,5.20
2022-10-11T04:17:03.879Z,6.00
2022-10-11T04:18:03.894Z,5.90
2022-10-11T04:19:04.003Z,6.50
2022-10-11T04:20:03.882Z,6.70
2022-10-11T04:21:04.018Z,7.20
2022-10-11T04:22:03.854Z,6.50
2022-10-11T04:23:03.862Z,6.40
2022-10-11T04:24:03.898Z,7.30
2022-10-11T04:25:03.829Z,6.30
2022-10-11T04:26:04.118Z,6.60
2022-10-11T04:27:03.827Z,6.80
2022-10-11T04:28:03.830Z,7.10
2022-10-11T04:29:03.814Z,7.30
2022-10-11T04:30:03.807Z,7.50
2022-10-11T04:31:03.832Z,7.40
2022-10-11T04:32:03.815Z,7.70
2022-10-11T04:33:03.799Z,7.30
2022-10-11T04:34:03.792Z,7.30
2022-10-11T04:35:04.842Z,7.10
2022-10-11T04:36:05.081Z,7.50
2022-10-11T04:37:03.816Z,6.80
2022-10-11T04:38:03.804Z,7.40
2022-10-11T04:39:03.750Z,7.10
2022-10-11T04:40:03.752Z,6.80
2022-10-11T04:41:03.771Z,6.90
2022-10-11T04:42:03.749Z,7.30
2022-10-11T04:43:03.807Z,8.00
2022-10-11T04:44:03.731Z,7.00
2022-10-11T04:45:03.749Z,12.30
2022-10-11T04:46:03.951Z,81.60
2022-10-11T04:47:03.708Z,148.40
2022-10-11T04:48:03.693Z,138.20
2022-10-11T04:49:03.680Z,53.70
2022-10-11T04:50:03.735Z,98.50
2022-10-11T04:51:03.717Z,128.10
2022-10-11T04:52:03.702Z,135.10
2022-10-11T04:53:03.731Z,107.90
2022-10-11T04:54:03.714Z,104.80
2022-10-11T04:55:03.659Z,103.60
2022-10-11T04:56:04.197Z,85.40
2022-10-11T04:57:03.650Z,33.50
2022-10-11T04:58:03.688Z,48.80
2022-10-11T04:59:03.631Z,64.20
2022-10-11T05:00:03.716Z,71.10
2022-10-11T05:01:03.634Z,116.20
2022-10-11T05:02:03.685Z,86.00
2022-10-11T05:03:04.219Z,75.20
2022-10-11T05:04:03.607Z,49.00
2022-10-11T05:05:35.607Z,46.80
2022-10-11T05:06:05.955Z,63.40
2022-10-11T05:07:04.588Z,28.70
2022-10-11T05:08:03.575Z,42.50
2022-10-11T05:09:03.609Z,34.70
2022-10-11T05:10:03.557Z,45.80
2022-10-11T05:11:04.591Z,34.30
2022-10-11T05:12:03.605Z,34.10
2022-10-11T05:13:03.544Z,29.30
2022-10-11T05:14:03.547Z,29.60
2022-10-11T05:15:03.594Z,41.20
2022-10-11T05:16:07.055Z,37.50
2022-10-11T05:17:05.559Z,48.10
2022-10-11T05:18:03.520Z,37.00
2022-10-11T05:19:03.522Z,30.60
2022-10-11T05:20:03.528Z,37.40
2022-10-11T05:21:03.507Z,37.00
2022-10-11T05:22:03.556Z,50.10
2022-10-11T05:23:03.515Z,53.30
2022-10-11T05:24:03.496Z,55.60
2022-10-11T05:25:03.500Z,97.50
2022-10-11T05:26:03.945Z,66.80
2022-10-11T05:27:03.756Z,25.30
2022-10-11T05:28:03.469Z,9.80
2022-10-11T05:29:03.593Z,9.40
2022-10-11T05:30:03.628Z,7.70
2022-10-11T05:31:03.485Z,6.20
2022-10-11T05:32:03.447Z,6.20
2022-10-11T05:33:03.489Z,6.20
2022-10-11T05:34:03.454Z,6.20
2022-10-11T05:35:03.423Z,6.10
2022-10-11T05:36:03.868Z,6.20
2022-10-11T05:37:03.401Z,6.60
2022-10-11T05:38:03.400Z,6.30
2022-10-11T05:39:03.397Z,6.60
2022-10-11T05:40:03.400Z,5.80
2022-10-11T05:41:03.380Z,7.20
2022-10-11T05:42:07.666Z,5.90
2022-10-11T05:43:04.377Z,5.90
2022-10-11T05:44:04.362Z,6.40
2022-10-11T05:45:03.380Z,6.60
2022-10-11T05:46:03.654Z,5.60
2022-10-11T05:47:03.341Z,6.10
2022-10-11T05:48:03.348Z,6.10
2022-10-11T05:49:03.341Z,6.40
2022-10-11T05:50:03.333Z,6.30
2022-10-11T05:51:03.346Z,7.00
2022-10-11T05:52:03.303Z,7.30
2022-10-11T05:53:03.312Z,7.20
2022-10-11T05:54:03.313Z,7.40
2022-10-11T05:55:03.300Z,7.20
2022-10-11T05:56:03.794Z,7.40
2022-10-11T05:57:03.290Z,7.00
2022-10-11T05:58:03.281Z,6.20
2022-10-11T05:59:04.272Z,7.00
2022-10-11T06:00:03.281Z,6.70
2022-10-11T06:01:03.288Z,7.30
2022-10-11T06:02:03.284Z,6.50
2022-10-11T06:03:03.292Z,7.30
2022-10-11T06:04:03.249Z,7.10
2022-10-11T06:05:03.244Z,6.30
2022-10-11T06:06:03.348Z,6.40
2022-10-11T06:07:03.248Z,6.90
2022-10-11T06:08:03.226Z,7.50
2022-10-11T06:09:03.200Z,7.60
2022-10-11T06:10:03.216Z,8.10
2022-10-11T06:11:03.208Z,8.00
2022-10-11T06:12:03.209Z,8.40
2022-10-11T06:13:03.268Z,8.80
2022-10-11T06:14:03.169Z,7.50
2022-10-11T06:15:03.213Z,7.40
2022-10-11T06:16:03.690Z,7.90
2022-10-11T06:17:03.165Z,8.90
2022-10-11T06:18:03.165Z,9.80
2022-10-11T06:19:03.148Z,9.60
2022-10-11T06:20:03.136Z,8.80
2022-10-11T06:21:03.144Z,8.40
2022-10-11T06:22:03.124Z,7.90
2022-10-11T06:23:03.164Z,7.70
2022-10-11T06:24:03.144Z,7.20
2022-10-11T06:25:03.104Z,6.60
2022-10-11T06:26:03.526Z,7.30
2022-10-11T06:27:03.084Z,7.10
2022-10-11T06:28:03.172Z,7.90
2022-10-11T06:29:03.099Z,8.20
2022-10-11T06:30:03.086Z,6.80
2022-10-11T06:31:03.083Z,6.80
2022-10-11T06:32:03.105Z,6.60
2022-10-11T06:33:04.933Z,6.70
2022-10-11T06:34:04.081Z,6.60
2022-10-11T06:35:03.045Z,7.70
2022-10-11T06:36:03.369Z,7.60
2022-10-11T06:37:03.041Z,7.00
2022-10-11T06:38:03.034Z,7.50
2022-10-11T06:39:03.028Z,7.20
2022-10-11T06:40:03.042Z,8.10
2022-10-11T06:41:03.006Z,6.90
2022-10-11T06:42:03.018Z,8.20
2022-10-11T06:43:03.026Z,7.70
2022-10-11T06:44:03.013Z,7.10
2022-10-11T06:45:02.991Z,7.00
2022-10-11T06:46:03.365Z,7.40
2022-10-11T06:47:03.012Z,6.90
2022-10-11T06:48:02.986Z,7.30
2022-10-11T06:49:02.951Z,7.90
2022-10-11T06:50:02.960Z,8.30
2022-10-11T06:51:02.944Z,7.60
2022-10-11T06:52:02.947Z,7.00
2022-10-11T06:53:02.927Z,7.20
2022-10-11T06:54:02.954Z,7.70
2022-10-11T06:55:02.919Z,7.60
2022-10-11T06:56:03.284Z,7.90
2022-10-11T06:57:02.918Z,7.60
2022-10-11T06:58:02.899Z,7.00
2022-10-11T06:59:02.905Z,7.80
2022-10-11T07:00:02.879Z,7.00
2022-10-11T07:01:03.183Z,7.70
2022-10-11T07:02:02.889Z,7.90
2022-10-11T07:03:02.874Z,9.80
2022-10-11T07:04:02.885Z,8.50
2022-10-11T07:05:02.853Z,8.80
2022-10-11T07:06:03.068Z,9.30
2022-10-11T07:07:02.847Z,8.80
2022-10-11T07:08:02.843Z,8.50
2022-10-11T07:09:02.846Z,9.30
2022-10-11T07:10:02.820Z,9.00
2022-10-11T07:11:02.808Z,7.90
2022-10-11T07:12:02.808Z,8.90
2022-10-11T07:13:02.820Z,8.30
2022-10-11T07:14:02.824Z,7.90
2022-10-11T07:15:02.825Z,7.50
2022-10-11T07:16:03.278Z,7.30
2022-10-11T07:17:02.781Z,8.60
2022-10-11T07:18:02.781Z,9.10
2022-10-11T07:19:02.803Z,7.70
2022-10-11T07:20:02.876Z,8.10
2022-10-11T07:21:02.761Z,7.50
2022-10-11T07:22:02.745Z,8.20
2022-10-11T07:23:02.828Z,8.00
2022-10-11T07:24:02.740Z,8.70
2022-10-11T07:25:02.776Z,8.10
2022-10-11T07:26:03.114Z,8.30
2022-10-11T07:27:02.728Z,8.40
2022-10-11T07:28:02.711Z,8.70
2022-10-11T07:29:02.727Z,8.10
2022-10-11T07:30:03.664Z,7.30
2022-10-11T07:31:02.708Z,7.00
2022-10-11T07:32:02.721Z,7.00
2022-10-11T07:33:02.740Z,6.70
2022-10-11T07:34:02.703Z,7.30
2022-10-11T07:35:02.680Z,8.90
2022-10-11T07:36:03.041Z,7.60
2022-10-11T07:37:02.668Z,7.70
2022-10-11T07:38:02.683Z,7.00
2022-10-11T07:39:02.672Z,8.00
2022-10-11T07:40:02.659Z,6.50
2022-10-11T07:41:02.655Z,6.70
2022-10-11T07:42:02.631Z,6.10
2022-10-11T07:43:02.664Z,5.80
2022-10-11T07:44:02.649Z,6.70
2022-10-11T07:45:02.628Z,6.30
2022-10-11T07:46:02.968Z,6.20
2022-10-11T07:47:02.620Z,7.20
2022-10-11T07:48:02.591Z,6.50
2022-10-11T07:49:02.648Z,8.50
2022-10-11T07:50:02.698Z,23.70
2022-10-11T07:51:02.572Z,40.40
2022-10-11T07:52:02.577Z,10.10
2022-10-11T07:53:02.668Z,9.00
2022-10-11T07:54:07.043Z,6.30
2022-10-11T07:55:03.549Z,5.70
2022-10-11T07:56:03.903Z,6.30
2022-10-11T07:57:02.531Z,6.20
2022-10-11T07:58:02.523Z,6.60
2022-10-11T07:59:02.551Z,6.10
2022-10-11T08:00:02.559Z,6.00
2022-10-11T08:01:02.546Z,5.60
2022-10-11T08:02:02.656Z,5.50
2022-10-11T08:03:02.499Z,6.20
2022-10-11T08:04:02.492Z,6.30
2022-10-11T08:05:02.517Z,7.50
2022-10-11T08:06:02.870Z,6.60
2022-10-11T08:07:02.494Z,6.40
2022-10-11T08:08:02.478Z,6.60
2022-10-11T08:09:02.470Z,6.20
2022-10-11T08:10:02.508Z,6.50
2022-10-11T08:11:02.451Z,6.50
2022-10-11T08:12:02.635Z,7.00
2022-10-11T08:13:04.524Z,7.00
2022-10-11T08:14:03.423Z,7.00
2022-10-11T08:15:02.454Z,6.40
2022-10-11T08:16:02.582Z,6.80
2022-10-11T08:17:02.418Z,7.30
2022-10-11T08:18:02.417Z,7.30
2022-10-11T08:19:02.451Z,6.70
2022-10-11T08:20:02.390Z,7.30
2022-10-11T08:21:02.415Z,7.40
2022-10-11T08:22:02.380Z,7.70
2022-10-11T08:23:02.374Z,7.80
2022-10-11T08:24:02.383Z,7.30
2022-10-11T08:25:02.390Z,7.30
2022-10-11T08:26:02.678Z,7.50
2022-10-11T08:27:02.360Z,7.00
2022-10-11T08:28:02.349Z,7.60
2022-10-11T08:29:02.470Z,7.40
2022-10-11T08:30:02.337Z,7.40
2022-10-11T08:31:02.364Z,7.80
2022-10-11T08:32:02.353Z,8.20
2022-10-11T08:33:07.576Z,7.70
2022-10-11T08:34:04.302Z,7.40
2022-10-11T08:35:02.325Z,7.90
2022-10-11T08:36:02.635Z,7.30
2022-10-11T08:37:02.324Z,7.80
2022-10-11T08:38:02.284Z,7.80
2022-10-11T08:39:02.292Z,7.50
2022-10-11T08:40:02.280Z,7.30
2022-10-11T08:41:02.300Z,7.20
2022-10-11T08:42:02.301Z,7.20
2022-10-11T08:43:02.248Z,7.70
2022-10-11T08:44:02.284Z,7.30
2022-10-11T08:45:11.522Z,7.80
2022-10-11T08:46:04.697Z,7.10
2022-10-11T08:47:02.231Z,7.50
2022-10-11T08:48:02.259Z,7.50
2022-10-11T08:49:02.221Z,6.90
2022-10-11T08:50:02.219Z,7.10
2022-10-11T08:51:02.207Z,7.70
2022-10-11T08:52:02.251Z,7.40
2022-10-11T08:53:02.215Z,8.00
2022-10-11T08:54:07.140Z,7.70
2022-10-11T08:55:04.178Z,7.90
2022-10-11T08:56:02.412Z,8.80
2022-10-11T08:57:02.176Z,7.80
2022-10-11T08:58:02.223Z,8.20
2022-10-11T08:59:02.164Z,7.80
2022-10-11T09:00:02.160Z,7.60
2022-10-11T09:01:02.215Z,7.20
2022-10-11T09:02:02.221Z,7.20
2022-10-11T09:03:10.065Z,7.40
2022-10-11T09:04:04.120Z,7.50
2022-10-11T09:05:02.233Z,7.00
2022-10-11T09:06:02.395Z,7.30
2022-10-11T09:07:04.880Z,6.70
2022-10-11T09:08:03.224Z,7.50
2022-10-11T09:09:02.096Z,7.70
2022-10-11T09:10:02.104Z,7.20
2022-10-11T09:11:02.087Z,7.30
2022-10-11T09:12:02.087Z,6.90
2022-10-11T09:13:02.141Z,6.50
2022-10-11T09:14:02.075Z,6.60
2022-10-11T09:15:02.083Z,6.80
2022-10-11T09:16:02.312Z,6.80
2022-10-11T09:17:02.052Z,6.90
2022-10-11T09:18:02.052Z,7.00
2022-10-11T09:19:02.036Z,8.30
2022-10-11T09:20:02.030Z,7.10
2022-10-11T09:21:02.021Z,6.40
2022-10-11T09:22:02.026Z,7.30
2022-10-11T09:23:02.026Z,7.50
2022-10-11T09:24:02.029Z,6.70
2022-10-11T09:25:01.994Z,7.50
2022-10-11T09:26:02.202Z,7.50
2022-10-11T09:27:01.994Z,6.90
2022-10-11T09:28:03.473Z,7.60
2022-10-11T09:29:03.027Z,7.60
2022-10-11T09:30:01.984Z,6.80
2022-10-11T09:31:01.989Z,7.10
2022-10-11T09:32:01.949Z,7.30
2022-10-11T09:33:01.942Z,7.70
2022-10-11T09:34:01.967Z,8.20
2022-10-11T09:35:01.941Z,7.20
2022-10-11T09:36:02.069Z,6.90
2022-10-11T09:37:01.941Z,7.40
2022-10-11T09:38:01.924Z,7.20
2022-10-11T09:39:06.324Z,7.30
2022-10-11T09:40:02.917Z,8.20
2022-10-11T09:41:01.945Z,7.90
2022-10-11T09:42:01.929Z,7.00
2022-10-11T09:43:01.928Z,6.90
2022-10-11T09:44:01.910Z,7.70
2022-10-11T09:45:01.881Z,7.60
2022-10-11T09:46:02.174Z,7.00
2022-10-11T09:47:01.877Z,7.40
2022-10-11T09:48:01.880Z,7.30
2022-10-11T09:49:01.897Z,6.60
2022-10-11T09:50:01.852Z,7.30
2022-10-11T09:51:01.833Z,7.70
2022-10-11T09:52:01.866Z,8.20
2022-10-11T09:53:01.952Z,6.90
2022-10-11T09:54:01.852Z,7.60
2022-10-11T09:55:01.831Z,7.60
2022-10-11T09:56:02.038Z,6.80
2022-10-11T09:57:01.824Z,7.60
2022-10-11T09:58:01.803Z,6.80
2022-10-11T09:59:01.850Z,7.50
2022-10-11T10:00:01.852Z,8.00
2022-10-11T10:01:07.318Z,6.90
2022-10-11T10:02:03.851Z,6.20
2022-10-11T10:03:01.767Z,7.00
2022-10-11T10:04:01.774Z,6.80
2022-10-11T10:05:01.774Z,6.30
2022-10-11T10:06:01.882Z,6.80
2022-10-11T10:07:01.753Z,6.20
2022-10-11T10:08:04.706Z,6.30
2022-10-11T10:09:02.734Z,6.40
2022-10-11T10:10:01.748Z,6.30
2022-10-11T10:11:01.769Z,5.90
2022-10-11T10:12:01.716Z,6.00
2022-10-11T10:13:01.749Z,6.10
2022-10-11T10:14:01.751Z,5.50
2022-10-11T10:15:01.704Z,6.00
2022-10-11T10:16:01.809Z,5.40
2022-10-11T10:17:01.686Z,5.40
2022-10-11T10:18:01.692Z,5.80
2022-10-11T10:19:01.705Z,5.40
2022-10-11T10:20:01.663Z,5.20
2022-10-11T10:21:01.693Z,5.70
2022-10-11T10:22:01.668Z,5.70
2022-10-11T10:23:01.687Z,5.70
2022-10-11T10:24:01.636Z,5.50
2022-10-11T10:25:01.644Z,6.80
2022-10-11T10:26:01.637Z,5.90
2022-10-11T10:27:01.609Z,5.70
2022-10-11T10:28:01.618Z,6.10
2022-10-11T10:29:02.595Z,5.90
2022-10-11T10:30:01.609Z,5.90
2022-10-11T10:31:01.600Z,5.30
2022-10-11T10:32:13.900Z,4.60
2022-10-11T10:33:03.577Z,4.90
2022-10-11T10:34:01.594Z,5.80
2022-10-11T10:35:01.587Z,5.60
2022-10-11T10:36:01.662Z,5.00
2022-10-11T10:37:01.554Z,4.90
2022-10-11T10:38:01.556Z,4.90
2022-10-11T10:39:01.560Z,4.80
2022-10-11T10:40:01.599Z,4.50
2022-10-11T10:41:01.527Z,4.50
2022-10-11T10:42:01.560Z,4.40
2022-10-11T10:43:01.514Z,4.20
2022-10-11T10:44:01.512Z,5.80
2022-10-11T10:45:01.533Z,4.50
2022-10-11T10:46:01.563Z,4.60
2022-10-11T10:47:01.587Z,4.50
2022-10-11T10:48:01.488Z,4.50
2022-10-11T10:49:34.402Z,4.80
2022-10-11T10:50:12.631Z,4.60
2022-10-11T10:51:01.513Z,4.40
2022-10-11T10:52:01.456Z,4.20
2022-10-11T10:53:01.454Z,4.50
2022-10-11T10:54:01.449Z,4.90
2022-10-11T10:55:01.465Z,4.50
2022-10-11T10:56:01.481Z,4.80
2022-10-11T10:57:01.447Z,4.80
2022-10-11T10:58:01.471Z,5.20
2022-10-11T10:59:01.423Z,4.80
2022-10-11T11:00:01.412Z,5.50
2022-10-11T11:01:01.414Z,5.00
2022-10-11T11:02:15.906Z,4.80
2022-10-11T11:03:03.470Z,4.20
2022-10-11T11:04:01.417Z,4.70
2022-10-11T11:05:01.382Z,5.00
2022-10-11T11:06:01.471Z,4.70
2022-10-11T11:07:01.420Z,4.50
2022-10-11T11:08:01.375Z,4.40
2022-10-11T11:09:01.381Z,4.50
2022-10-11T11:10:01.359Z,4.30
2022-10-11T11:11:01.367Z,5.10
2022-10-11T11:12:01.363Z,4.50
2022-10-11T11:13:01.359Z,5.10
2022-10-11T11:14:01.355Z,4.60
2022-10-11T11:15:01.383Z,5.20
2022-10-11T11:16:01.323Z,4.30
2022-10-11T11:17:01.323Z,4.50
2022-10-11T11:18:01.368Z,4.40
2022-10-11T11:19:01.322Z,4.40
2022-10-11T11:20:01.298Z,4.20
2022-10-11T11:21:01.290Z,4.30
2022-10-11T11:22:02.202Z,4.70
2022-10-11T11:23:01.310Z,4.10
2022-10-11T11:24:01.296Z,4.40
2022-10-11T11:25:01.271Z,4.60
2022-10-11T11:26:01.339Z,4.70
2022-10-11T11:27:01.262Z,5.30
2022-10-11T11:28:01.255Z,4.40
2022-10-11T11:29:01.344Z,4.70
2022-10-11T11:30:01.246Z,4.10
2022-10-11T11:31:01.232Z,4.30
2022-10-11T11:32:01.228Z,4.30
2022-10-11T11:33:01.239Z,4.60
2022-10-11T11:34:01.267Z,4.00
2022-10-11T11:35:01.218Z,4.50
2022-10-11T11:36:01.199Z,4.50
2022-10-11T11:37:01.191Z,4.70
2022-10-11T11:38:06.056Z,4.30
2022-10-11T11:39:03.227Z,4.40
2022-10-11T11:40:01.194Z,4.30
2022-10-11T11:41:01.171Z,4.30
2022-10-11T11:42:01.176Z,6.00
2022-10-11T11:43:01.150Z,4.40
2022-10-11T11:44:01.179Z,4.10
2022-10-11T11:45:01.139Z,9.10
2022-10-11T11:46:01.131Z,5.00
2022-10-11T11:47:01.127Z,5.20
2022-10-11T11:48:01.170Z,18.60
2022-10-11T11:49:01.106Z,6.40
2022-10-11T11:50:01.131Z,12.50
2022-10-11T11:51:01.102Z,5.80
2022-10-11T11:52:01.102Z,4.00
2022-10-11T11:53:01.074Z,7.00
2022-10-11T11:54:01.098Z,4.40
2022-10-11T11:55:03.967Z,4.00
2022-10-11T11:56:02.064Z,3.80
2022-10-11T11:57:01.635Z,4.50
2022-10-11T11:58:06.038Z,3.90
2022-10-11T11:59:03.060Z,4.20
2022-10-11T12:00:01.038Z,4.10
2022-10-11T12:01:01.042Z,4.10
2022-10-11T12:02:01.064Z,4.30
2022-10-11T12:03:01.027Z,4.20
2022-10-11T12:04:01.014Z,23.40
2022-10-11T12:05:00.995Z,16.60
2022-10-11T12:06:01.008Z,27.90
2022-10-11T12:07:15.434Z,8.30
2022-10-11T12:08:02.972Z,3.80
2022-10-11T12:09:00.960Z,3.80
2022-10-11T12:10:00.960Z,3.80
2022-10-11T12:11:00.968Z,3.90
2022-10-11T12:12:01.860Z,3.60
2022-10-11T12:13:00.953Z,4.30
2022-10-11T12:14:00.935Z,4.00
2022-10-11T12:15:00.918Z,6.10
2022-10-11T12:16:00.931Z,8.20
2022-10-11T12:17:00.912Z,6.40
2022-10-11T12:18:00.903Z,3.10
2022-10-11T12:19:00.919Z,2.90
2022-10-11T12:20:00.898Z,2.80
2022-10-11T12:21:00.891Z,2.80
2022-10-11T12:22:01.767Z,2.80
2022-10-11T12:23:00.874Z,2.80
2022-10-11T12:24:00.878Z,5.60
2022-10-11T12:25:00.879Z,3.90
2022-10-11T12:26:00.835Z,2.90
2022-10-11T12:27:00.854Z,3.00
2022-10-11T12:28:00.825Z,4.30
2022-10-11T12:29:00.874Z,21.80
2022-10-11T12:30:33.250Z,4.70
2022-10-11T12:31:00.821Z,7.40
2022-10-11T12:32:02.874Z,4.30
2022-10-11T12:33:00.793Z,2.70
2022-10-11T12:34:00.952Z,3.00
2022-10-11T12:35:00.815Z,2.90
2022-10-11T12:36:04.062Z,4.10
2022-10-11T12:37:05.945Z,2.90
2022-10-11T12:38:01.762Z,2.70
2022-10-11T12:39:00.748Z,3.00
2022-10-11T12:40:00.764Z,8.50
2022-10-11T12:41:00.753Z,2.70
2022-10-11T12:42:05.191Z,2.70
2022-10-11T12:43:01.751Z,3.10
2022-10-11T12:44:00.739Z,2.90
2022-10-11T12:45:00.730Z,3.10
2022-10-11T12:46:00.725Z,3.00
2022-10-11T12:47:00.700Z,2.60
2022-10-11T12:48:00.684Z,2.70
2022-10-11T12:49:00.685Z,2.80
2022-10-11T12:50:00.668Z,3.00
2022-10-11T12:51:03.113Z,2.90
2022-10-11T12:52:01.661Z,2.80
2022-10-11T12:53:00.666Z,2.90
2022-10-11T12:54:24.948Z,2.40
2022-10-11T12:55:02.677Z,3.00
2022-10-11T12:56:00.640Z,2.50
2022-10-11T12:57:00.616Z,2.60
2022-10-11T12:58:00.643Z,3.70
2022-10-11T12:59:00.615Z,2.80
2022-10-11T13:00:00.687Z,4.60
2022-10-11T13:01:00.666Z,2.80
2022-10-11T13:02:00.639Z,2.50
2022-10-11T13:03:00.676Z,2.80
2022-10-11T13:04:00.584Z,2.50
2022-10-11T13:05:00.596Z,2.50
2022-10-11T13:06:02.061Z,2.30
2022-10-11T13:07:05.870Z,2.40
2022-10-11T13:08:02.569Z,2.80
2022-10-11T13:09:00.579Z,2.50
2022-10-11T13:10:00.553Z,2.50
2022-10-11T13:11:00.536Z,2.60
2022-10-11T13:12:00.543Z,2.30
2022-10-11T13:13:00.540Z,2.70
2022-10-11T13:14:00.556Z,2.20
2022-10-11T13:15:00.591Z,3.00
2022-10-11T13:16:00.511Z,2.50